Time;durP1;ratioP1;P1;durP2;ratioP2;P2;SDS_P1;SDS_P2;PMS_P1;PMS_P2;Temp;Humidity;BMP_temperature;BMP_pressure;BME280_temperature;BME280_humidity;BME280_pressure;Samples;Min_cycle;Max_cycle;Signal;HPM_P1;HPM_P2
2021/04/14 00:00:55;;;;;;;1.20;1.02;;;15.00;49.60;;;;;;4956469;29;20027;-37
2021/04/14 00:03:25;;;;;;;3.05;1.00;;;15.10;49.70;;;;;;4956231;29;20481;-38
2021/04/14 00:05:52;;;;;;;1.92;0.90;;;15.10;74.40;;;;;;4956481;29;20035;-37
2021/04/14 00:08:19;;;;;;;1.10;0.95;;;14.90;49.60;;;;;;4956345;29;20052;-37
2021/04/14 00:10:46;;;;;;;1.33;0.80;;;14.90;49.70;;;;;;4956351;29;20387;-37
2021/04/14 00:13:15;;;;;;;1.83;0.70;;;14.90;49.70;;;;;;4956195;29;20116;-38
2021/04/14 00:15:47;;;;;;;1.15;0.90;;;14.90;49.70;;;;;;4956240;29;20430;-37
2021/04/14 00:18:13;;;;;;;1.00;0.77;;;14.90;49.70;;;;;;4956231;29;20378;-37
2021/04/14 00:20:39;;;;;;;0.80;0.80;;;14.90;49.80;;;;;;4955860;29;20082;-37
2021/04/14 00:23:06;;;;;;;1.67;0.90;;;14.90;49.80;;;;;;4956156;29;20027;-36
2021/04/14 00:25:35;;;;;;;1.70;0.80;;;14.90;49.80;;;;;;4956042;29;20471;-36
2021/04/14 00:28:01;;;;;;;1.35;0.85;;;14.80;49.80;;;;;;4956075;29;20035;-38
2021/04/14 00:30:28;;;;;;;1.92;0.90;;;14.80;49.90;;;;;;4956067;29;20016;-36
2021/04/14 00:32:55;;;;;;;0.82;0.77;;;14.80;49.80;;;;;;4955961;29;20055;-38
2021/04/14 00:35:23;;;;;;;1.10;0.80;;;14.80;49.90;;;;;;4955037;28;20038;-37
2021/04/14 00:37:49;;;;;;;1.10;1.00;;;14.60;49.80;;;;;;4955956;29;20034;-38
2021/04/14 00:40:21;;;;;;;1.63;0.70;;;14.70;49.80;;;;;;4955937;29;20486;-38
2021/04/14 00:42:47;;;;;;;0.90;0.65;;;14.80;49.90;;;;;;4955929;29;20031;-38
2021/04/14 00:45:13;;;;;;;2.25;0.90;;;14.80;50.00;;;;;;4955516;29;20078;-38
2021/04/14 00:47:39;;;;;;;1.70;0.80;;;14.80;49.90;;;;;;4955731;29;20073;-38
2021/04/14 00:50:10;;;;;;;1.20;0.98;;;14.70;49.90;;;;;;4955576;29;20471;-38
2021/04/14 00:52:36;;;;;;;1.23;0.82;;;14.80;50.00;;;;;;4955509;29;20081;-38
2021/04/14 00:55:02;;;;;;;2.45;0.80;;;14.70;50.00;;;;;;4955426;28;20471;-38
2021/04/14 00:57:27;;;;;;;1.08;0.90;;;15.40;50.30;;;;;;4955492;29;20031;-38
2021/04/14 00:59:53;;;;;;;2.13;0.90;;;14.70;50.00;;;;;;4955430;29;20028;-38
2021/04/14 01:02:18;;;;;;;1.45;1.10;;;14.70;50.00;;;;;;4955276;29;20035;-38
2021/04/14 01:04:44;;;;;;;0.77;0.77;;;14.70;50.00;;;;;;4955077;29;20102;-38
2021/04/14 01:07:09;;;;;;;1.02;0.70;;;14.70;50.00;;;;;;4955293;29;20047;-38
2021/04/14 01:09:35;;;;;;;1.20;0.90;;;14.70;50.00;;;;;;4955453;29;20037;-38
2021/04/14 01:12:01;;;;;;;0.85;0.70;;;14.70;50.10;;;;;;4955238;29;20027;-38
2021/04/14 01:14:26;;;;;;;1.10;0.90;;;14.70;50.10;;;;;;4954791;29;20040;-38
2021/04/14 01:16:52;;;;;;;0.80;0.70;;;14.70;50.10;;;;;;4955124;29;20020;-42
2021/04/14 01:19:18;;;;;;;0.63;0.60;;;14.60;50.10;;;;;;4955130;29;20030;-38
2021/04/14 01:21:43;;;;;;;1.83;0.63;;;14.40;50.00;;;;;;4955129;29;20119;-38
2021/04/14 01:24:15;;;;;;;1.83;1.00;;;14.60;50.10;;;;;;4954930;29;20546;-38
2021/04/14 01:26:41;;;;;;;0.75;0.70;;;14.60;50.10;;;;;;4954989;29;20023;-38
2021/04/14 01:29:08;;;;;;;0.95;0.90;;;14.60;50.10;;;;;;4954822;29;20042;-38
2021/04/14 01:31:34;;;;;;;1.42;0.80;;;14.60;50.20;;;;;;4954810;29;20028;-38
2021/04/14 01:34:11;;;;;;;2.47;1.00;;;14.60;50.20;;;;;;4954627;29;20086;-38
2021/04/14 01:36:37;;;;;;;0.90;0.80;;;14.60;50.10;;;;;;4954814;29;20047;-38
2021/04/14 01:39:06;;;;;;;3.38;0.80;;;14.60;50.20;;;;;;4954390;29;20470;-38
2021/04/14 01:41:32;;;;;;;4.70;1.00;;;14.60;50.20;;;;;;4954728;29;20407;-37
2021/04/14 01:43:58;;;;;;;2.58;0.80;;;14.50;50.20;;;;;;4954672;29;20110;-38
2021/04/14 01:46:23;;;;;;;0.75;0.63;;;14.50;50.20;;;;;;4953634;28;20526;-36
2021/04/14 01:48:49;;;;;;;1.10;0.82;;;14.50;50.20;;;;;;4954217;29;20541;-37
2021/04/14 01:51:15;;;;;;;1.08;0.90;;;14.50;50.30;;;;;;4954107;29;20110;-37
2021/04/14 01:53:41;;;;;;;1.85;0.75;;;14.50;50.30;;;;;;4954462;29;20035;-37
2021/04/14 01:56:06;;;;;;;2.63;0.90;;;14.50;50.30;;;;;;4954048;28;20022;-37
2021/04/14 01:58:33;;;;;;;0.70;0.70;;;14.50;50.30;;;;;;4954315;29;20031;-38
2021/04/14 02:01:03;;;;;;;1.55;1.00;;;14.50;50.30;;;;;;4954119;29;20031;-38
2021/04/14 02:03:30;;;;;;;;;;;14.30;50.20;;;;;;4954579;29;20098;-39
2021/04/14 02:05:56;;;;;;;1.52;0.68;;;14.50;50.40;;;;;;4954359;29;19946;-38
2021/04/14 02:08:22;;;;;;;2.63;0.95;;;14.50;50.40;;;;;;4954209;29;20446;-38
2021/04/14 02:10:48;;;;;;;1.67;1.10;;;14.40;50.30;;;;;;4954255;29;20414;-38
2021/04/14 02:13:36;;;;;;;0.88;0.85;;;14.50;50.60;;;;;;4953846;29;20529;-38
2021/04/14 02:16:04;;;;;;;0.70;0.70;;;14.30;50.30;;;;;;4954086;29;20434;-37
2021/04/14 02:18:29;;;;;;;1.05;0.77;;;14.40;50.40;;;;;;4954125;29;20086;-38
2021/04/14 02:20:55;;;;;;;1.63;1.00;;;14.40;50.40;;;;;;4954059;29;20027;-38
2021/04/14 02:23:34;;;;;;;1.23;0.70;;;14.40;50.40;;;;;;4954034;29;20032;-38
2021/04/14 02:26:06;;;;;;;0.90;0.90;;;14.40;50.30;;;;;;4954163;29;20246;-38
2021/04/14 02:28:32;;;;;;;2.30;0.68;;;;;;;;;;4954013;29;20378;-37
2021/04/14 02:30:58;;;;;;;0.98;0.90;;;14.40;49.80;;;;;;4954131;29;20026;-38
2021/04/14 02:33:24;;;;;;;1.13;1.00;;;14.40;50.40;;;;;;4953658;29;20039;-38
2021/04/14 02:35:51;;;;;;;0.82;0.70;;;14.40;50.40;;;;;;4953719;29;20027;-38
2021/04/14 02:38:17;;;;;;;1.00;0.90;;;14.40;50.40;;;;;;4953909;29;20027;-38
2021/04/14 02:40:43;;;;;;;1.23;1.10;;;14.30;50.40;;;;;;4953628;29;20558;-38
2021/04/14 02:43:09;;;;;;;1.17;1.02;;;14.40;50.40;;;;;;4953938;29;20031;-38
2021/04/14 02:45:37;;;;;;;1.58;1.17;;;14.30;50.40;;;;;;4953592;29;20023;-38
2021/04/14 02:48:03;;;;;;;1.60;0.98;;;14.40;50.50;;;;;;4953836;29;20035;-38
2021/04/14 02:50:30;;;;;;;2.25;0.80;;;14.30;50.50;;;;;;4953907;29;20079;-38
2021/04/14 02:52:56;;;;;;;1.20;0.95;;;14.10;50.30;;;;;;4953691;29;20478;-38
2021/04/14 02:55:24;;;;;;;1.50;1.10;;;14.30;50.50;;;;;;4953416;28;20031;-38
2021/04/14 02:57:50;;;;;;;2.05;0.90;;;14.30;50.50;;;;;;4954737;28;20055;-38
2021/04/14 03:00:18;;;;;;;0.77;0.77;;;14.30;50.50;;;;;;4957273;29;20066;-38
2021/04/14 03:02:45;;;;;;;0.82;0.80;;;14.50;50.60;;;;;;4957552;29;20426;-38
2021/04/14 03:05:11;;;;;;;1.70;1.00;;;14.30;50.50;;;;;;4957060;29;20051;-38
2021/04/14 03:07:38;;;;;;;1.48;0.98;;;14.20;50.50;;;;;;4957133;29;20493;-38
2021/04/14 03:10:06;;;;;;;2.10;0.90;;;14.30;50.60;;;;;;4957449;29;20360;-38
2021/04/14 03:12:32;;;;;;;1.02;0.60;;;14.20;50.50;;;;;;4957258;29;20098;-38
2021/04/14 03:14:58;;;;;;;0.98;0.70;;;14.20;50.50;;;;;;4957317;29;20051;-37
2021/04/14 03:17:23;;;;;;;3.15;0.85;;;14.20;50.50;;;;;;4957220;29;20391;-38
2021/04/14 03:19:49;;;;;;;1.60;0.90;;;14.20;50.60;;;;;;4957223;29;20028;-38
2021/04/14 03:22:15;;;;;;;1.20;0.65;;;14.00;50.40;;;;;;4957104;29;20094;-38
2021/04/14 03:24:41;;;;;;;1.77;1.02;;;14.20;50.60;;;;;;4957007;29;20114;-38
2021/04/14 03:27:06;;;;;;;1.48;0.80;;;14.20;50.60;;;;;;4957033;29;20570;-38
2021/04/14 03:29:32;;;;;;;1.20;1.10;;;14.20;50.60;;;;;;4956720;29;20034;-38
2021/04/14 03:31:57;;;;;;;1.75;0.90;;;14.20;50.60;;;;;;4956947;29;20058;-38
2021/04/14 03:34:23;;;;;;;1.25;0.93;;;14.20;50.60;;;;;;4956494;29;20035;-38
2021/04/14 03:36:49;;;;;;;1.23;0.80;;;14.20;50.60;;;;;;4956787;29;20054;-38
2021/04/14 03:39:14;;;;;;;0.98;0.88;;;14.10;50.60;;;;;;4956535;29;20046;-38
2021/04/14 03:41:40;;;;;;;1.27;0.57;;;14.10;50.60;;;;;;4956490;29;20035;-38
2021/04/14 03:44:05;;;;;;;1.35;0.98;;;14.10;50.60;;;;;;4956816;29;20034;-38
2021/04/14 03:46:31;;;;;;;1.20;0.93;;;14.40;75.60;;;;;;4956739;29;20099;-38
2021/04/14 03:48:57;;;;;;;0.68;0.60;;;14.10;50.70;;;;;;4956343;29;20058;-38
2021/04/14 03:51:26;;;;;;;0.80;0.60;;;14.10;50.60;;;;;;4956704;29;20027;-38
2021/04/14 03:53:52;;;;;;;0.70;0.70;;;14.00;50.60;;;;;;4956192;29;20035;-38
2021/04/14 03:56:19;;;;;;;1.10;0.80;;;14.10;50.60;;;;;;4956436;28;20023;-37
2021/04/14 03:58:50;;;;;;;0.80;0.80;;;14.10;50.70;;;;;;4956479;29;20393;-38
2021/04/14 04:01:26;;;;;;;0.88;0.80;;;14.10;50.70;;;;;;4956459;29;20375;-37
2021/04/14 04:03:53;;;;;;;0.80;0.70;;;14.10;50.70;;;;;;4955951;29;20113;-38
2021/04/14 04:06:19;;;;;;;0.98;0.80;;;14.10;50.70;;;;;;4956374;29;20038;-38
2021/04/14 04:08:45;;;;;;;3.33;1.02;;;14.10;50.80;;;;;;4955936;28;20054;-38
2021/04/14 04:11:11;;;;;;;1.00;0.90;;;14.00;50.70;;;;;;4955352;29;20483;-38
2021/04/14 04:13:37;;;;;;;1.35;0.98;;;14.00;50.70;;;;;;4956120;29;20031;-38
2021/04/14 04:16:03;;;;;;;1.00;0.88;;;14.00;50.80;;;;;;4956102;29;20055;-36
2021/04/14 04:18:29;;;;;;;1.33;0.70;;;14.00;50.80;;;;;;4955790;29;20031;-38
2021/04/14 04:20:55;;;;;;;1.23;1.05;;;14.00;50.80;;;;;;4955917;29;20395;-38
2021/04/14 04:23:21;;;;;;;1.30;0.90;;;14.70;51.10;;;;;;4955847;29;20031;-38
2021/04/14 04:25:47;;;;;;;1.00;0.82;;;14.00;51.40;;;;;;4956032;29;20024;-38
2021/04/14 04:28:12;;;;;;;1.75;0.90;;;13.80;50.70;;;;;;4955924;29;20557;-38
2021/04/14 04:30:38;;;;;;;1.00;0.75;;;14.00;50.80;;;;;;4955963;29;20431;-38
2021/04/14 04:33:04;;;;;;;1.55;0.73;;;14.00;50.90;;;;;;4955790;29;20589;-38
2021/04/14 04:35:31;;;;;;;0.80;0.70;;;13.90;50.80;;;;;;4955704;29;20031;-38
2021/04/14 04:37:58;;;;;;;0.80;0.60;;;14.00;51.50;;;;;;4955760;29;20023;-38
2021/04/14 04:40:24;;;;;;;1.33;1.17;;;14.00;50.80;;;;;;4955719;29;20386;-38
2021/04/14 04:42:50;;;;;;;1.95;0.90;;;14.00;50.80;;;;;;4955626;29;20041;-37
2021/04/14 04:45:19;;;;;;;1.33;0.90;;;14.50;51.10;;;;;;4955652;29;20023;-38
2021/04/14 04:47:45;;;;;;;1.20;1.10;;;14.00;50.90;;;;;;4955604;29;20035;-37
2021/04/14 04:50:12;;;;;;;1.65;1.10;;;14.00;50.90;;;;;;4955551;29;20024;-38
2021/04/14 04:52:38;;;;;;;1.40;0.95;;;14.00;50.90;;;;;;4955415;29;20029;-38
2021/04/14 04:55:05;;;;;;;1.02;0.93;;;13.90;50.90;;;;;;4955321;28;20035;-37
2021/04/14 04:57:31;;;;;;;1.00;0.90;;;14.00;51.10;;;;;;4955034;29;20073;-38
2021/04/14 04:59:56;;;;;;;1.60;1.08;;;13.90;51.10;;;;;;4955381;29;20031;-37
2021/04/14 05:02:22;;;;;;;1.08;0.98;;;14.00;51.20;;;;;;4955397;29;20027;-38
2021/04/14 05:04:48;;;;;;;1.45;0.90;;;14.10;51.20;;;;;;4954865;29;20058;-37
2021/04/14 05:07:13;;;;;;;1.98;0.98;;;14.00;51.50;;;;;;4955250;29;20026;-37
2021/04/14 05:09:39;;;;;;;0.95;0.88;;;14.00;52.10;;;;;;4955203;29;20023;-37
2021/04/14 05:12:05;;;;;;;1.08;0.98;;;14.20;52.10;;;;;;4954905;29;20035;-37
2021/04/14 05:14:31;;;;;;;1.60;0.93;;;14.30;51.90;;;;;;4954999;29;20186;-37
2021/04/14 05:16:56;;;;;;;0.70;0.70;;;14.40;51.80;;;;;;4955095;29;20102;-37
2021/04/14 05:19:22;;;;;;;1.00;0.90;;;14.60;51.60;;;;;;4954786;29;20021;-37
2021/04/14 05:21:47;;;;;;;0.77;0.65;;;14.80;51.30;;;;;;4954487;28;20027;-37
2021/04/14 05:24:13;;;;;;;1.55;1.05;;;14.90;51.00;;;;;;4954733;29;20098;-37
2021/04/14 05:26:39;;;;;;;1.45;0.63;;;15.00;50.90;;;;;;4954835;29;20117;-37
2021/04/14 05:29:05;;;;;;;1.23;0.80;;;15.60;50.90;;;;;;4954729;29;20062;-37
2021/04/14 05:31:32;;;;;;;0.85;0.73;;;15.20;50.30;;;;;;4954720;29;20038;-37
2021/04/14 05:33:59;;;;;;;1.10;0.80;;;15.60;50.20;;;;;;4937093;29;20158;-37
2021/04/14 05:36:25;;;;;;;1.67;0.80;;;15.60;50.00;;;;;;4954663;29;20030;-37
2021/04/14 05:38:51;;;;;;;1.10;0.50;;;15.70;49.80;;;;;;4954507;29;20031;-37
2021/04/14 05:41:17;;;;;;;0.75;0.70;;;15.50;49.60;;;;;;4954368;29;20526;-37
2021/04/14 05:43:43;;;;;;;2.45;0.80;;;16.20;49.90;;;;;;4954306;29;20074;-37
2021/04/14 05:46:15;;;;;;;4.00;0.90;;;15.70;49.80;;;;;;4954624;29;20034;-38
2021/04/14 05:48:42;;;;;;;1.42;0.90;;;16.10;50.20;;;;;;4954240;29;20502;-38
2021/04/14 05:51:10;;;;;;;2.22;0.85;;;15.60;50.10;;;;;;4954572;29;20114;-38
2021/04/14 05:53:52;;;;;;;1.15;0.88;;;15.50;49.90;;;;;;4954431;29;20122;-38
2021/04/14 05:56:20;;;;;;;3.25;1.08;;;15.30;50.20;;;;;;4954424;29;20031;-38
2021/04/14 05:58:46;;;;;;;1.23;1.10;;;15.40;50.00;;;;;;4954204;29;20026;-37
2021/04/14 06:01:15;;;;;;;1.75;1.20;;;15.40;50.00;;;;;;4954165;29;20027;-38
2021/04/14 06:03:41;;;;;;;4.35;1.95;;;15.40;49.90;;;;;;4953677;29;20522;-38
2021/04/14 06:06:06;;;;;;;0.80;0.80;;;15.40;50.20;;;;;;4953966;29;20062;-38
2021/04/14 06:08:32;;;;;;;2.15;0.82;;;15.60;50.30;;;;;;4954204;29;20106;-38
2021/04/14 06:10:59;;;;;;;2.20;1.48;;;15.30;50.20;;;;;;4954134;29;20451;-38
2021/04/14 06:13:26;;;;;;;3.28;1.30;;;15.30;50.20;;;;;;4953984;29;20038;-38
2021/04/14 06:15:51;;;;;;;3.33;1.45;;;14.50;49.90;;;;;;4954047;29;20023;-38
2021/04/14 06:18:17;;;;;;;1.30;0.80;;;15.30;50.30;;;;;;4953991;29;20030;-38
2021/04/14 06:20:43;;;;;;;1.85;1.25;;;15.10;50.20;;;;;;4954007;29;20031;-38
2021/04/14 06:23:11;;;;;;;1.67;0.90;;;15.30;50.20;;;;;;4953663;29;20020;-38
2021/04/14 06:25:42;;;;;;;2.35;1.02;;;15.30;50.30;;;;;;4953720;29;20106;-38
2021/04/14 06:28:08;;;;;;;1.30;0.90;;;15.30;50.20;;;;;;4953990;29;20517;-38
2021/04/14 06:30:37;;;;;;;1.52;1.02;;;15.30;50.20;;;;;;4953690;29;20027;-38
2021/04/14 06:33:05;;;;;;;2.00;1.00;;;15.30;50.30;;;;;;4954949;28;20102;-38
2021/04/14 06:35:31;;;;;;;1.65;0.80;;;15.30;50.30;;;;;;4957590;29;20027;-38
2021/04/14 06:37:57;;;;;;;1.15;0.80;;;15.40;50.30;;;;;;4957874;29;20139;-38
2021/04/14 06:43:30;;;;;;;2.45;0.73;;;15.40;50.00;;;;;;4957814;29;20050;-38
2021/04/14 06:45:59;;;;;;;2.88;1.10;;;15.50;50.70;;;;;;4957760;29;20511;-38
2021/04/14 06:48:40;;;;;;;3.63;0.70;;;15.40;51.00;;;;;;4957647;29;20035;-38
2021/04/14 06:51:27;;;;;;;2.03;1.02;;;15.50;50.30;;;;;;4957581;29;20019;-38
2021/04/14 06:54:19;;;;;;;2.78;0.85;;;15.60;75.10;;;;;;4957223;28;20430;-38
2021/04/14 06:56:54;;;;;;;2.05;0.88;;;15.50;50.10;;;;;;4957161;29;20027;-38
2021/04/14 06:59:22;;;;;;;1.88;1.20;;;15.40;50.00;;;;;;4957479;29;20031;-38
2021/04/14 07:01:54;;;;;;;1.25;0.90;;;15.40;50.10;;;;;;4957139;29;20039;-38
2021/04/14 07:04:28;;;;;;;1.65;0.88;;;16.10;50.70;;;;;;4957135;29;20130;-38
2021/04/14 07:06:54;;;;;;;2.85;1.00;;;15.50;50.20;;;;;;4957457;29;20561;-38
2021/04/14 07:09:41;;;;;;;3.03;0.98;;;15.50;50.20;;;;;;4957416;29;20027;-38
2021/04/14 07:12:10;;;;;;;2.25;1.23;;;15.50;50.20;;;;;;4957376;29;20110;-38
2021/04/14 07:14:36;;;;;;;4.00;0.88;;;15.60;50.40;;;;;;4957296;29;20093;-38
2021/04/14 07:17:11;;;;;;;3.40;1.20;;;15.60;50.30;;;;;;4956997;29;20042;-38
2021/04/14 07:20:00;;;;;;;6.22;2.80;;;15.70;50.50;;;;;;4957229;29;20120;-38
2021/04/14 07:22:26;;;;;;;5.17;2.27;;;15.70;51.50;;;;;;4957268;29;20055;-39
2021/04/14 07:25:08;;;;;;;2.83;1.80;;;15.70;51.50;;;;;;4957148;29;20666;-38
2021/04/14 07:27:55;;;;;;;5.18;3.13;;;15.90;51.80;;;;;;4957134;29;20089;-38
2021/04/14 07:30:27;;;;;;;5.43;2.22;;;16.00;51.60;;;;;;4957085;29;20394;-38
2021/04/14 07:33:07;;;;;;;5.55;2.70;;;16.00;51.60;;;;;;4956953;29;20050;-38
2021/04/14 07:36:03;;;;;;;8.02;2.53;;;16.00;51.70;;;;;;4956971;29;20035;-38
2021/04/14 07:38:54;;;;;;;3.13;2.42;;;16.00;52.10;;;;;;4946216;29;20398;-38
2021/04/14 07:41:28;;;;;;;4.57;2.20;;;16.00;52.50;;;;;;4956810;29;20082;-38
2021/04/14 07:44:17;;;;;;;4.80;2.53;;;15.70;52.80;;;;;;4956803;28;20083;-38
2021/04/14 07:46:46;;;;;;;5.07;2.50;;;15.90;53.20;;;;;;4956731;29;20090;-38
2021/04/14 07:49:12;;;;;;;3.85;2.25;;;15.90;53.40;;;;;;4956676;29;20089;-38
2021/04/14 07:51:38;;;;;;;5.25;2.60;;;16.00;53.40;;;;;;4956344;29;20023;-38
2021/04/14 07:54:14;;;;;;;5.97;2.75;;;15.90;53.60;;;;;;4956172;28;20041;-38
2021/04/14 07:56:50;;;;;;;6.60;2.80;;;15.90;53.90;;;;;;4956519;29;20019;-38
2021/04/14 07:59:31;;;;;;;6.20;2.40;;;15.90;53.90;;;;;;4938896;29;20031;-38
2021/04/14 08:02:00;;;;;;;4.10;2.03;;;15.90;53.60;;;;;;4956424;29;20486;-38
2021/04/14 08:04:39;;;;;;;12.90;2.25;;;15.80;53.50;;;;;;4955857;29;20047;-38
2021/04/14 08:07:35;;;;;;;4.65;2.15;;;15.80;53.40;;;;;;4956310;29;20019;-38
2021/04/14 08:10:10;;;;;;;3.20;1.80;;;15.80;53.50;;;;;;4948036;29;20117;-38
2021/04/14 08:12:39;;;;;;;4.00;1.80;;;16.40;53.70;;;;;;4956191;29;20135;-38
2021/04/14 08:15:27;;;;;;;4.22;2.08;;;15.80;53.30;;;;;;4955827;29;20031;-38
2021/04/14 08:18:07;;;;;;;4.55;1.58;;;15.80;53.10;;;;;;4956115;29;20427;-38
2021/04/14 08:20:33;;;;;;;3.05;1.83;;;15.80;53.10;;;;;;4956122;29;20028;-38
2021/04/14 08:23:12;;;;;;;3.15;2.10;;;15.80;53.00;;;;;;4956051;29;20027;-38
2021/04/14 08:25:44;;;;;;;5.38;1.73;;;15.80;52.90;;;;;;4956033;29;20031;-38
2021/04/14 08:28:09;;;;;;;3.55;1.50;;;15.80;52.80;;;;;;4955963;29;20047;-38
2021/04/14 08:30:35;;;;;;;2.50;1.48;;;15.90;52.80;;;;;;4955903;29;20451;-38
2021/04/14 08:33:05;;;;;;;4.88;1.55;;;15.90;52.50;;;;;;4955380;29;20113;-38
2021/04/14 08:35:35;;;;;;;2.63;1.20;;;15.90;52.90;;;;;;4955800;29;20030;-38
2021/04/14 08:38:26;;;;;;;4.93;1.30;;;15.90;52.20;;;;;;4955706;29;20106;-38
2021/04/14 08:40:55;;;;;;;2.30;1.13;;;15.90;52.20;;;;;;4938251;29;20019;-38
2021/04/14 08:43:34;;;;;;;1.90;1.38;;;16.10;52.10;;;;;;4955585;29;20063;-38
2021/04/14 08:46:13;;;;;;;7.85;1.58;;;16.00;52.00;;;;;;4955312;29;20049;-38
2021/04/14 08:48:41;;;;;;;2.58;1.15;;;16.00;52.00;;;;;;4955535;29;20427;-38
2021/04/14 08:51:09;;;;;;;3.35;1.20;;;16.00;51.90;;;;;;4955315;29;20031;-38
2021/04/14 08:53:38;;;;;;;2.05;1.10;;;16.00;52.00;;;;;;4955494;28;20039;-38
2021/04/14 08:56:06;;;;;;;1.88;1.17;;;16.10;52.10;;;;;;4955058;28;20134;-38
2021/04/14 08:58:32;;;;;;;2.33;0.90;;;16.10;51.70;;;;;;4955125;29;20038;-38
2021/04/14 09:00:58;;;;;;;2.63;1.95;;;16.20;51.60;;;;;;4955359;29;20431;-37
2021/04/14 09:03:29;;;;;;;9.48;1.73;;;16.20;51.40;;;;;;4954971;29;20078;-38
2021/04/14 09:05:55;;;;;;;1.67;1.20;;;16.30;51.50;;;;;;4955232;29;20038;-37
2021/04/14 09:08:24;;;;;;;1.30;1.00;;;16.10;51.30;;;;;;4955035;29;20026;-38
2021/04/14 09:11:01;;;;;;;4.28;1.65;;;16.20;51.10;;;;;;4937539;29;20034;-37
2021/04/14 09:13:49;;;;;;;2.92;1.10;;;16.30;51.20;;;;;;4954898;29;20098;-38
2021/04/14 09:16:34;;;;;;;1.23;0.85;;;16.30;51.20;;;;;;4954801;29;20016;-37
2021/04/14 09:19:10;;;;;;;1.23;0.80;;;16.30;51.10;;;;;;4955183;29;20477;-37
2021/04/14 09:21:57;;;;;;;1.98;1.13;;;16.40;50.90;;;;;;4954898;29;20042;-38
2021/04/14 09:24:31;;;;;;;1.75;1.20;;;16.50;50.70;;;;;;4954814;29;20023;-38
2021/04/14 09:26:59;;;;;;;1.40;1.08;;;16.40;50.70;;;;;;4954734;29;20019;-38
2021/04/14 09:29:51;;;;;;;2.75;1.15;;;16.60;50.70;;;;;;4954468;29;20024;-38
2021/04/14 09:32:18;;;;;;;1.27;0.75;;;16.60;50.40;;;;;;4954712;29;20363;-38
2021/04/14 09:34:49;;;;;;;1.70;0.82;;;16.60;50.30;;;;;;4954303;29;20035;-38
2021/04/14 09:37:19;;;;;;;2.20;1.30;;;16.70;50.30;;;;;;4954732;29;20031;-39
2021/04/14 09:40:01;;;;;;;2.30;1.00;;;16.70;50.20;;;;;;4954393;29;20035;-38
2021/04/14 09:42:44;;;;;;;3.15;1.13;;;16.60;50.90;;;;;;4954962;29;20055;-38
2021/04/14 09:45:27;;;;;;;3.13;0.95;;;16.70;52.30;;;;;;4954284;29;20474;-38
2021/04/14 09:47:54;;;;;;;2.58;1.40;;;16.70;53.40;;;;;;4954588;29;20044;-38
2021/04/14 09:50:23;;;;;;;2.42;1.27;;;16.70;54.00;;;;;;4954286;29;20121;-38
2021/04/14 09:52:57;;;;;;;1.83;1.00;;;16.70;54.60;;;;;;4954415;28;20031;-38
2021/04/14 09:55:27;;;;;;;2.38;1.00;;;16.80;55.20;;;;;;4954334;29;20031;-38
2021/04/14 09:57:53;;;;;;;2.87;1.03;;;16.80;55.60;;;;;;4954341;29;20106;-38
2021/04/14 10:00:30;;;;;;;3.08;1.13;;;16.80;56.10;;;;;;4954097;29;20061;-38
2021/04/14 10:03:00;;;;;;;1.77;0.82;;;16.80;56.30;;;;;;4954388;29;20107;-38
2021/04/14 10:05:31;;;;;;;2.00;1.20;;;16.80;56.70;;;;;;4953944;29;20126;-38
2021/04/14 10:08:03;;;;;;;1.30;0.95;;;16.80;57.00;;;;;;4953363;28;20090;-38
2021/04/14 10:10:29;;;;;;;1.45;0.80;;;16.70;57.20;;;;;;4954057;29;20027;-38
2021/04/14 10:12:56;;;;;;;1.52;0.95;;;16.80;57.50;;;;;;4936450;29;20019;-38
2021/04/14 10:15:38;;;;;;;0.80;0.70;;;16.90;57.70;;;;;;4953995;29;20382;-38
2021/04/14 10:18:23;;;;;;;1.35;0.80;;;16.90;57.90;;;;;;4953754;29;20042;-38
2021/04/14 10:20:49;;;;;;;1.67;0.85;;;17.00;58.00;;;;;;4954013;29;20023;-38
2021/04/14 10:23:20;;;;;;;2.10;1.00;;;17.00;58.30;;;;;;4953951;29;20383;-38
2021/04/14 10:25:47;;;;;;;2.00;0.70;;;16.90;58.20;;;;;;4954033;29;20024;-38
2021/04/14 10:28:22;;;;;;;1.40;0.70;;;17.60;59.00;;;;;;4953571;29;20023;-38
2021/04/14 10:30:59;;;;;;;1.30;0.90;;;17.00;58.80;;;;;;4953442;29;20019;-38
2021/04/14 10:33:26;;;;;;;2.17;0.80;;;17.00;58.70;;;;;;4953843;29;20110;-38
2021/04/14 10:35:52;;;;;;;2.25;1.00;;;16.90;58.90;;;;;;4953781;29;20023;-38
2021/04/14 10:38:30;;;;;;;1.80;0.90;;;17.10;59.20;;;;;;4953956;29;20030;-38
2021/04/14 10:40:56;;;;;;;1.55;0.70;;;17.10;59.10;;;;;;4953844;29;20573;-38
2021/04/14 10:43:25;;;;;;;2.05;0.80;;;17.10;59.00;;;;;;4953467;29;20022;-38
2021/04/14 10:46:05;;;;;;;0.90;0.80;;;17.10;59.10;;;;;;4953146;29;20047;-38
2021/04/14 10:48:33;;;;;;;3.83;0.77;;;17.00;59.30;;;;;;4953732;29;20039;-38
2021/04/14 10:51:44;;;;;;;0.60;0.60;;;17.10;60.20;;;;;;4953452;29;20037;-38
2021/04/14 10:54:12;;;;;;;0.63;0.40;;;17.00;60.00;;;;;;4953468;28;20357;-38
2021/04/14 10:56:39;;;;;;;0.80;0.60;;;17.00;60.00;;;;;;4953598;29;20030;-38
2021/04/14 10:59:14;;;;;;;1.00;0.60;;;17.00;60.00;;;;;;4953259;29;20030;-38
2021/04/14 11:01:46;;;;;;;2.10;0.70;;;16.80;60.40;;;;;;4953609;29;20059;-37
2021/04/14 11:04:32;;;;;;;0.82;0.60;;;17.00;60.90;;;;;;4953270;28;20047;-38
2021/04/14 11:07:01;;;;;;;0.95;0.63;;;17.00;60.70;;;;;;4953411;29;20034;-38
2021/04/14 11:09:30;;;;;;;0.80;0.60;;;16.90;60.40;;;;;;4953433;29;20019;-37
2021/04/14 11:11:59;;;;;;;0.45;0.40;;;17.10;60.60;;;;;;4953077;29;20027;-37
2021/04/14 11:14:25;;;;;;;3.08;0.60;;;17.10;60.60;;;;;;4953017;29;20107;-37
2021/04/14 11:16:52;;;;;;;0.40;0.40;;;17.10;60.60;;;;;;4953039;29;20042;-37
2021/04/14 11:19:23;;;;;;;1.20;0.68;;;17.20;60.60;;;;;;4954879;28;20027;-37
2021/04/14 11:22:10;;;;;;;1.70;0.60;;;17.20;60.80;;;;;;4956964;29;20079;-37
2021/04/14 11:24:54;;;;;;;1.23;0.52;;;17.10;60.80;;;;;;4956930;29;20023;-37
2021/04/14 11:27:31;;;;;;;1.60;0.55;;;17.00;60.90;;;;;;4956759;29;20033;-37
2021/04/14 11:30:12;;;;;;;0.50;0.40;;;16.90;60.90;;;;;;4956828;29;20058;-38
2021/04/14 11:32:38;;;;;;;1.25;0.50;;;16.90;61.10;;;;;;4956510;29;20027;-38
2021/04/14 11:35:08;;;;;;;1.00;0.68;;;16.90;61.00;;;;;;4956516;29;20101;-38
2021/04/14 11:37:37;;;;;;;;;;;16.90;60.90;;;;;;4956607;29;20070;-38
2021/04/14 11:40:19;;;;;;;1.67;0.50;;;16.80;61.00;;;;;;4956670;28;19970;-38
2021/04/14 11:42:55;;;;;;;2.97;0.50;;;16.80;60.80;;;;;;4955751;29;20042;-37
2021/04/14 11:45:34;;;;;;;2.00;0.50;;;16.80;60.80;;;;;;4955791;29;20387;-37
2021/04/14 11:48:10;;;;;;;1.65;0.85;;;16.80;60.80;;;;;;4956449;29;20099;-38
2021/04/14 11:50:38;;;;;;;1.30;0.50;;;16.70;60.80;;;;;;4956616;29;20086;-37
2021/04/14 11:53:30;;;;;;;1.88;0.80;;;16.70;60.60;;;;;;4956495;28;20031;-37
2021/04/14 11:55:57;;;;;;;1.70;0.40;;;16.80;60.60;;;;;;4956498;29;20082;-37
2021/04/14 11:58:32;;;;;;;0.90;0.60;;;16.70;60.50;;;;;;4956502;29;20023;-38
2021/04/14 12:12:06;;;;;;;4.07;0.60;;;16.90;60.30;;;;;;4951235;29;20935;-38
2021/04/14 12:28:03;;;;;;;0.82;0.60;;;17.10;59.60;;;;;;4955826;29;20061;-38
2021/04/14 12:30:29;;;;;;;2.28;0.75;;;17.20;60.20;;;;;;4955126;28;20051;-38
2021/04/14 12:32:55;;;;;;;4.78;0.52;;;17.10;59.90;;;;;;4955865;29;20058;-38
2021/04/14 12:35:22;;;;;;;1.75;0.60;;;17.00;59.70;;;;;;4955627;29;20027;-38
2021/04/14 12:37:48;;;;;;;2.38;0.50;;;17.10;60.00;;;;;;4955867;29;20422;-37
2021/04/14 12:40:14;;;;;;;3.55;0.95;;;17.20;60.00;;;;;;4955541;29;20019;-37
2021/04/14 12:42:40;;;;;;;3.45;1.02;;;17.20;59.60;;;;;;4955762;29;20049;-38
2021/04/14 12:45:35;;;;;;;2.47;0.80;;;17.10;59.90;;;;;;4955664;29;20594;-37
2021/04/14 12:48:03;;;;;;;1.75;0.68;;;17.20;59.40;;;;;;4950031;29;20118;-37
2021/04/14 12:50:28;;;;;;;1.98;0.88;;;17.00;59.80;;;;;;4955521;29;20066;-39
2021/04/14 12:52:57;;;;;;;2.90;1.13;;;17.20;59.60;;;;;;4955007;28;20110;-38
2021/04/14 12:55:40;;;;;;;3.35;0.50;;;17.20;59.30;;;;;;4955369;29;20027;-38
2021/04/14 12:58:08;;;;;;;5.60;0.70;;;17.30;59.60;;;;;;4954986;29;20035;-36
2021/04/14 13:00:34;;;;;;;4.45;0.60;;;17.20;59.20;;;;;;4954955;29;20479;-37
2021/04/14 13:03:24;;;;;;;1.05;0.90;;;17.10;58.90;;;;;;4955204;29;20035;-38
2021/04/14 13:05:54;;;;;;;;;;;17.20;58.70;;;;;;4955240;29;20037;-36
2021/04/14 13:08:22;;;;;;;2.90;1.23;;;17.20;59.00;;;;;;4955171;29;19978;-36
2021/04/14 13:10:57;;;;;;;1.20;0.50;;;17.30;59.00;;;;;;4954890;29;20075;-38
2021/04/14 13:13:23;;;;;;;1.17;0.65;;;17.30;58.70;;;;;;4954694;29;20134;-38
2021/04/14 13:16:08;;;;;;;2.70;0.47;;;17.30;58.70;;;;;;4954640;29;20034;-38
2021/04/14 13:18:37;;;;;;;2.35;0.63;;;17.30;58.50;;;;;;4954862;29;20023;-38
2021/04/14 13:21:24;;;;;;;0.50;0.45;;;17.10;58.50;;;;;;4954511;29;20453;-37
2021/04/14 13:24:04;;;;;;;1.20;0.65;;;17.30;58.30;;;;;;4954879;29;20019;-37
2021/04/14 13:26:41;;;;;;;0.70;0.50;;;17.40;58.70;;;;;;4954684;29;20019;-37
2021/04/14 13:29:30;;;;;;;0.85;0.38;;;17.30;58.40;;;;;;4954908;29;20279;-36
2021/04/14 13:32:11;;;;;;;2.72;0.57;;;17.40;58.20;;;;;;4954795;29;20147;-38